createdAt,value
2023-02-26T00:01:34.327Z,100197.72
2023-02-26T00:04:05.564Z,100205.38
2023-02-26T00:06:35.867Z,100206.22
2023-02-26T00:09:04.772Z,100203.63
2023-02-26T00:11:33.832Z,100202.78
2023-02-26T00:14:01.944Z,100200.22
2023-02-26T00:16:32.743Z,100198.47
2023-02-26T00:19:04.109Z,100198.47
2023-02-26T00:21:34.007Z,100209.56
2023-02-26T00:24:02.519Z,100202.72
2023-02-26T00:26:32.932Z,100205.22
2023-02-26T00:29:01.633Z,100213.81
2023-02-26T00:31:30.198Z,100204.44
2023-02-26T00:33:58.831Z,100208.69
2023-02-26T00:36:42.796Z,100207.03
2023-02-26T00:39:24.665Z,100207.06
2023-02-26T00:41:53.009Z,100207.03
2023-02-26T00:44:21.431Z,100216.38
2023-02-26T00:46:55.288Z,100209.59
2023-02-26T00:49:29.155Z,100208.78
2023-02-26T00:52:00.386Z,100214.72
2023-02-26T00:54:30.225Z,100213.88
2023-02-26T00:56:59.260Z,100219.00
2023-02-26T00:59:27.268Z,100218.16
2023-02-26T01:01:55.473Z,100220.72
2023-02-26T01:04:24.994Z,100220.69
2023-02-26T01:06:56.399Z,100224.09
2023-02-26T01:09:27.711Z,100224.94
2023-02-26T01:12:01.513Z,100217.28
2023-02-26T01:14:31.329Z,100228.34
2023-02-26T01:17:04.796Z,100219.81
2023-02-26T01:19:38.311Z,100226.63
2023-02-26T01:22:15.073Z,100237.69
2023-02-26T01:24:44.583Z,100234.28
2023-02-26T01:27:13.247Z,100234.28
2023-02-26T01:29:41.391Z,100233.44
2023-02-26T01:32:16.878Z,100235.09
2023-02-26T01:34:50.076Z,100236.78
2023-02-26T01:37:27.698Z,100238.50
2023-02-26T01:40:19.337Z,100236.81
2023-02-26T01:42:51.612Z,100228.28
2023-02-26T01:45:27.625Z,100227.44
2023-02-26T01:48:03.149Z,100223.13
2023-02-26T01:50:36.080Z,100222.28
2023-02-26T01:53:18.930Z,100226.47
2023-02-26T01:55:52.561Z,100224.75
2023-02-26T01:58:22.795Z,100226.50
2023-02-26T02:00:52.009Z,100227.41
2023-02-26T02:03:21.612Z,100231.69
2023-02-26T02:05:53.765Z,100237.69
2023-02-26T02:08:23.062Z,100227.38
2023-02-26T02:10:53.519Z,100225.72
2023-02-26T02:13:31.948Z,100237.66
2023-02-26T02:16:10.860Z,100237.69
2023-02-26T02:18:48.395Z,100229.06
2023-02-26T02:21:50.207Z,100234.97
2023-02-26T02:24:31.128Z,100235.88
2023-02-26T02:27:09.278Z,100242.75
2023-02-26T02:30:04.499Z,100246.19
2023-02-26T02:32:39.385Z,100246.19
2023-02-26T02:35:14.937Z,100245.34
2023-02-26T02:37:48.439Z,100250.47
2023-02-26T02:40:20.509Z,100244.47
2023-02-26T02:42:55.246Z,100238.44
2023-02-26T02:45:27.789Z,100247.00
2023-02-26T02:48:02.084Z,100250.44
2023-02-26T02:50:34.838Z,100249.63
2023-02-26T02:53:08.131Z,100251.34
2023-02-26T02:55:39.476Z,100252.22
2023-02-26T02:58:12.462Z,100255.50
2023-02-26T03:00:46.510Z,100252.13
2023-02-26T03:03:22.119Z,100253.91
2023-02-26T03:05:50.247Z,100261.59
2023-02-26T03:08:21.628Z,100270.97
2023-02-26T03:10:50.136Z,100280.38
2023-02-26T03:13:21.694Z,100277.81
2023-02-26T03:16:08.406Z,100281.22
2023-02-26T03:18:48.928Z,100283.78
2023-02-26T03:21:23.141Z,100285.50
2023-02-26T03:23:58.731Z,100282.94
2023-02-26T03:26:33.897Z,100294.03
2023-02-26T03:29:10.523Z,100300.84
2023-02-26T03:31:43.571Z,100294.03
2023-02-26T03:34:19.686Z,100293.16
2023-02-26T03:36:52.794Z,100295.72
2023-02-26T03:39:27.863Z,100301.72
2023-02-26T03:42:01.253Z,100304.22
2023-02-26T03:44:40.159Z,100303.41
2023-02-26T03:47:14.371Z,100310.22
2023-02-26T03:49:50.043Z,100307.66
2023-02-26T03:52:18.373Z,100313.59
2023-02-26T03:55:03.941Z,100315.31
2023-02-26T03:57:51.260Z,100313.63
2023-02-26T04:00:28.073Z,100309.38
2023-02-26T04:03:01.759Z,100320.47
2023-02-26T04:05:36.016Z,100314.47
2023-02-26T04:08:04.695Z,100318.75
2023-02-26T04:10:37.768Z,100328.94
2023-02-26T04:13:05.523Z,100322.13
2023-02-26T04:15:33.357Z,100322.97
2023-02-26T04:18:01.051Z,100328.09
2023-02-26T04:20:29.419Z,100336.63
2023-02-26T04:22:58.541Z,100343.44
2023-02-26T04:25:26.317Z,100348.56
2023-02-26T04:27:54.471Z,100348.53
2023-02-26T04:30:22.301Z,100349.41
2023-02-26T04:32:50.841Z,100350.25
2023-02-26T04:35:19.147Z,100351.97
2023-02-26T04:37:47.217Z,100350.28
2023-02-26T04:40:17.160Z,100362.19
2023-02-26T04:42:47.327Z,100361.34
2023-02-26T04:45:20.053Z,100366.44
2023-02-26T04:47:47.822Z,100359.59
2023-02-26T04:50:16.540Z,100363.00
2023-02-26T04:52:45.587Z,100362.97
2023-02-26T04:55:14.019Z,100368.97
2023-02-26T04:57:43.495Z,100371.47
2023-02-26T05:00:13.541Z,100371.50
2023-02-26T05:02:41.626Z,100383.41
2023-02-26T05:05:10.361Z,100374.03
2023-02-26T05:07:38.315Z,100387.66
2023-02-26T05:10:07.937Z,100387.66
2023-02-26T05:12:35.725Z,100399.59
2023-02-26T05:15:05.560Z,100403.84
2023-02-26T05:17:33.420Z,100404.72
2023-02-26T05:20:01.186Z,100411.53
2023-02-26T05:22:29.477Z,100414.03
2023-02-26T05:24:57.844Z,100419.19
2023-02-26T05:27:25.679Z,100423.47
2023-02-26T05:29:53.652Z,100427.72
2023-02-26T05:32:23.065Z,100428.63
2023-02-26T05:34:50.968Z,100426.06
2023-02-26T05:37:18.793Z,100433.75
2023-02-26T05:39:46.460Z,100435.47
2023-02-26T05:42:15.042Z,100444.81
2023-02-26T05:44:42.851Z,100437.16
2023-02-26T05:47:16.088Z,100441.44
2023-02-26T05:49:45.409Z,100447.34
2023-02-26T05:52:14.122Z,100455.00
2023-02-26T05:54:42.239Z,100458.41
2023-02-26T05:57:09.903Z,100462.66
2023-02-26T05:59:38.938Z,100465.19
2023-02-26T06:02:06.686Z,100467.66
2023-02-26T06:04:35.040Z,100471.88
2023-02-26T06:07:04.240Z,100474.44
2023-02-26T06:09:32.205Z,100472.69
2023-02-26T06:12:00.625Z,100474.38
2023-02-26T06:14:28.605Z,100480.44
2023-02-26T06:16:56.420Z,100483.75
2023-02-26T06:19:24.800Z,100487.16
2023-02-26T06:21:52.550Z,100484.50
2023-02-26T06:24:21.905Z,100492.31
2023-02-26T06:26:49.591Z,100500.75
2023-02-26T06:29:20.310Z,100495.59
2023-02-26T06:31:48.834Z,100502.31
2023-02-26T06:34:16.861Z,100505.84
2023-02-26T06:36:44.838Z,100510.03
2023-02-26T06:39:14.150Z,100510.91
2023-02-26T06:41:43.308Z,100520.31
2023-02-26T06:44:11.353Z,100517.81
2023-02-26T06:46:39.217Z,100523.84
2023-02-26T06:49:07.191Z,100528.94
2023-02-26T06:51:34.993Z,100543.47
2023-02-26T06:54:03.671Z,100540.00
2023-02-26T06:56:31.426Z,100540.00
2023-02-26T06:59:01.030Z,100541.72
2023-02-26T07:01:29.144Z,100556.25
2023-02-26T07:03:56.869Z,100564.72
2023-02-26T07:06:27.740Z,100563.19
2023-02-26T07:08:56.683Z,100562.25
2023-02-26T07:11:25.250Z,100558.03
2023-02-26T07:13:53.042Z,100562.38
2023-02-26T07:16:22.198Z,100574.31
2023-02-26T07:18:49.927Z,100579.38
2023-02-26T07:21:17.713Z,100589.66
2023-02-26T07:23:46.256Z,100585.34
2023-02-26T07:26:15.282Z,100587.03
2023-02-26T07:28:43.000Z,100589.66
2023-02-26T07:31:11.069Z,100599.06
2023-02-26T07:33:41.050Z,100600.72
2023-02-26T07:36:09.127Z,100609.22
2023-02-26T07:38:36.909Z,100610.13
2023-02-26T07:41:05.624Z,100611.13
2023-02-26T07:43:33.290Z,100614.63
2023-02-26T07:46:01.280Z,100618.00
2023-02-26T07:48:28.977Z,100616.34
2023-02-26T07:50:58.325Z,100623.16
2023-02-26T07:53:26.186Z,100629.97
2023-02-26T07:55:54.241Z,100635.06
2023-02-26T07:58:22.213Z,100636.78
2023-02-26T08:00:50.342Z,100641.09
2023-02-26T08:03:18.444Z,100649.59
2023-02-26T08:05:46.313Z,100651.31
2023-02-26T08:08:16.135Z,100646.25
2023-02-26T08:10:44.725Z,100645.41
2023-02-26T08:13:12.772Z,100643.75
2023-02-26T08:15:43.879Z,100652.22
2023-02-26T08:18:11.858Z,100643.72
2023-02-26T08:20:39.956Z,100647.16
2023-02-26T08:23:08.146Z,100655.69
2023-02-26T08:25:37.697Z,100646.28
2023-02-26T08:28:05.731Z,100657.41
2023-02-26T08:30:33.545Z,100656.53
2023-02-26T08:33:01.381Z,100665.06
2023-02-26T08:35:29.202Z,100658.25
2023-02-26T08:37:57.448Z,100671.06
2023-02-26T08:40:25.110Z,100665.91
2023-02-26T08:42:54.364Z,100661.66
2023-02-26T08:45:22.210Z,100665.94
2023-02-26T08:47:56.563Z,100664.22
2023-02-26T08:50:25.224Z,100660.78
2023-02-26T08:52:53.074Z,100666.75
2023-02-26T08:55:21.220Z,100656.44
2023-02-26T08:57:48.935Z,100656.47
2023-02-26T09:00:19.512Z,100663.28
2023-02-26T09:02:47.777Z,100667.59
2023-02-26T09:05:17.307Z,100664.88
2023-02-26T09:07:45.980Z,100671.75
2023-02-26T09:10:17.136Z,100678.59
2023-02-26T09:12:46.993Z,100675.97
2023-02-26T09:15:16.914Z,100680.34
2023-02-26T09:17:46.556Z,100686.31
2023-02-26T09:20:16.274Z,100683.75
2023-02-26T09:22:44.696Z,100688.78
2023-02-26T09:25:13.269Z,100686.16
2023-02-26T09:27:41.808Z,100682.63
2023-02-26T09:30:11.655Z,100683.59
2023-02-26T09:32:40.442Z,100696.53
2023-02-26T09:35:10.236Z,100694.00
2023-02-26T09:37:38.080Z,100693.91
2023-02-26T09:40:07.036Z,100691.28
2023-02-26T09:42:49.560Z,100687.88
2023-02-26T09:45:26.796Z,100710.16
2023-02-26T09:47:56.146Z,100706.69
2023-02-26T09:50:29.687Z,100699.94
2023-02-26T09:53:04.702Z,100706.75
2023-02-26T09:55:38.891Z,100713.66
2023-02-26T09:58:18.701Z,100713.66
2023-02-26T10:00:57.801Z,100712.72
2023-02-26T10:03:31.775Z,100701.56
2023-02-26T10:06:20.725Z,100705.69
2023-02-26T10:09:09.379Z,100700.50
2023-02-26T10:11:48.015Z,100698.06
2023-02-26T10:14:20.762Z,100701.47
2023-02-26T10:16:54.370Z,100698.88
2023-02-26T10:19:28.532Z,100705.63
2023-02-26T10:22:01.974Z,100717.22
2023-02-26T10:24:34.532Z,100689.25
2023-02-26T10:27:07.866Z,100700.72
2023-02-26T10:29:39.573Z,100718.78
2023-02-26T10:32:22.893Z,100720.16
2023-02-26T10:34:56.985Z,100725.31
2023-02-26T10:37:36.609Z,100718.44
2023-02-26T10:40:12.229Z,100733.72
2023-02-26T10:42:44.779Z,100728.63
2023-02-26T10:45:29.002Z,100722.41
2023-02-26T10:48:07.830Z,100731.13
2023-02-26T10:50:37.090Z,100733.78
2023-02-26T10:53:11.069Z,100735.56
2023-02-26T10:55:42.907Z,100726.09
2023-02-26T10:58:16.979Z,100740.66
2023-02-26T11:00:49.222Z,100741.63
2023-02-26T11:03:22.876Z,100750.91
2023-02-26T11:05:52.378Z,100738.13
2023-02-26T11:08:29.610Z,100739.75
2023-02-26T11:10:59.516Z,100737.16
2023-02-26T11:13:32.155Z,100739.53
2023-02-26T11:16:06.251Z,100721.34
2023-02-26T11:18:40.694Z,100721.09
2023-02-26T11:21:10.507Z,100721.16
2023-02-26T11:23:43.003Z,100713.06
2023-02-26T11:26:20.427Z,100724.50
2023-02-26T11:28:51.164Z,100706.06
2023-02-26T11:31:24.337Z,100718.06
2023-02-26T11:33:56.931Z,100706.72
2023-02-26T11:36:32.208Z,100708.50
2023-02-26T11:39:05.313Z,100710.00
2023-02-26T11:41:39.591Z,100710.53
2023-02-26T11:44:16.087Z,100706.56
2023-02-26T11:46:48.812Z,100717.06
2023-02-26T11:49:21.578Z,100723.00
2023-02-26T11:52:03.049Z,100727.22
2023-02-26T11:54:37.236Z,100709.72
2023-02-26T11:57:09.157Z,100713.06
2023-02-26T11:59:45.013Z,100710.34
2023-02-26T12:02:16.242Z,100703.50
2023-02-26T12:04:46.453Z,100707.91
2023-02-26T12:07:18.846Z,100698.69
2023-02-26T12:09:49.670Z,100702.16
2023-02-26T12:12:41.825Z,100711.72
2023-02-26T12:15:33.614Z,100712.69
2023-02-26T12:18:24.889Z,100711.44
2023-02-26T12:21:09.931Z,100706.47
2023-02-26T12:23:59.887Z,100714.16
2023-02-26T12:26:33.712Z,100699.03
2023-02-26T12:29:23.923Z,100705.91
2023-02-26T12:32:18.305Z,100695.50
2023-02-26T12:35:17.830Z,100706.72
2023-02-26T12:37:53.412Z,100704.44
2023-02-26T12:40:49.469Z,100700.31
2023-02-26T12:43:29.848Z,100703.88
2023-02-26T12:46:18.528Z,100696.81
2023-02-26T12:49:24.877Z,100699.38
2023-02-26T12:52:09.764Z,100701.81
2023-02-26T12:54:54.205Z,100701.09
2023-02-26T12:57:52.012Z,100698.22
2023-02-26T13:00:35.038Z,100701.94
2023-02-26T13:03:23.966Z,100703.78
2023-02-26T13:06:18.426Z,100700.22
2023-02-26T13:08:59.362Z,100694.13
2023-02-26T13:11:46.255Z,100700.97
2023-02-26T13:14:28.431Z,100701.94
2023-02-26T13:17:07.695Z,100702.03
2023-02-26T13:19:44.296Z,100691.69
2023-02-26T13:22:23.514Z,100694.59
2023-02-26T13:25:04.491Z,100690.41
2023-02-26T13:27:38.546Z,100690.59
2023-02-26T13:30:23.525Z,100699.22
2023-02-26T13:32:57.404Z,100696.56
2023-02-26T13:35:31.036Z,100699.09
2023-02-26T13:38:03.898Z,100711.25
2023-02-26T13:41:06.755Z,100708.91
2023-02-26T13:43:52.320Z,100703.25
2023-02-26T13:46:38.986Z,100710.06
2023-02-26T13:49:18.508Z,100716.38
2023-02-26T13:51:48.917Z,100712.00
2023-02-26T13:54:37.874Z,100719.34
2023-02-26T13:57:23.040Z,100716.03
2023-02-26T13:59:57.035Z,100717.34
2023-02-26T14:02:40.197Z,100710.16
2023-02-26T14:05:26.606Z,100717.53
2023-02-26T14:08:09.554Z,100727.13
2023-02-26T14:10:46.776Z,100722.81
2023-02-26T14:13:19.556Z,100723.53
2023-02-26T14:15:54.605Z,100732.16
2023-02-26T14:18:32.019Z,100747.75
2023-02-26T14:21:43.097Z,100746.09
2023-02-26T14:24:20.453Z,100741.88
2023-02-26T14:26:51.401Z,100745.09
2023-02-26T14:29:28.029Z,100747.84
2023-02-26T14:32:06.600Z,100751.16
2023-02-26T14:34:40.717Z,100757.19
2023-02-26T14:37:17.400Z,100757.44
2023-02-26T14:39:50.680Z,100770.09
2023-02-26T14:42:22.372Z,100757.16
2023-02-26T14:44:54.688Z,100771.91
2023-02-26T14:47:23.116Z,100765.72
2023-02-26T14:49:58.234Z,100775.28
2023-02-26T14:53:03.380Z,100779.63
2023-02-26T14:55:44.570Z,100776.34
2023-02-26T14:58:58.146Z,100788.41
2023-02-26T15:01:46.359Z,100777.22
2023-02-26T15:04:34.541Z,100776.38
2023-02-26T15:07:17.202Z,100784.03
2023-02-26T15:10:02.953Z,100778.81
2023-02-26T15:12:46.690Z,100766.75
2023-02-26T15:15:26.031Z,100775.44
2023-02-26T15:18:15.523Z,100780.69
2023-02-26T15:20:55.880Z,100782.47
2023-02-26T15:23:35.320Z,100782.53
2023-02-26T15:26:07.293Z,100794.53
2023-02-26T15:28:39.336Z,100791.84
2023-02-26T15:31:13.313Z,100790.72
2023-02-26T15:33:45.730Z,100790.69
2023-02-26T15:36:18.789Z,100798.47
2023-02-26T15:38:50.816Z,100801.97
2023-02-26T15:41:21.421Z,100795.94
2023-02-26T15:43:52.799Z,100799.41
2023-02-26T15:46:31.147Z,100800.31
2023-02-26T15:49:06.672Z,100800.09
2023-02-26T15:51:36.005Z,100810.59
2023-02-26T15:54:04.940Z,100803.78
2023-02-26T15:56:41.481Z,100804.59
2023-02-26T15:59:18.711Z,100808.22
2023-02-26T16:01:53.724Z,100810.72
2023-02-26T16:04:24.317Z,100810.78
2023-02-26T16:06:57.143Z,100811.59
2023-02-26T16:09:30.976Z,100813.28
2023-02-26T16:12:05.767Z,100810.75
2023-02-26T16:14:39.865Z,100808.09
2023-02-26T16:17:14.534Z,100804.69
2023-02-26T16:19:46.876Z,100812.50
2023-02-26T16:22:22.567Z,100814.91
2023-02-26T16:25:20.181Z,100821.03
2023-02-26T16:27:58.882Z,100822.38
2023-02-26T16:30:32.516Z,100822.56
2023-02-26T16:33:00.524Z,100833.81
2023-02-26T16:35:35.009Z,100830.41
2023-02-26T16:38:17.565Z,100838.09
2023-02-26T16:40:47.007Z,100843.34
2023-02-26T16:43:36.798Z,100839.00
2023-02-26T16:46:06.587Z,100856.25
2023-02-26T16:48:39.180Z,100859.69
2023-02-26T16:51:12.299Z,100857.06
2023-02-26T16:53:45.740Z,100859.72
2023-02-26T16:56:18.279Z,100860.56
2023-02-26T16:58:52.520Z,100856.25
2023-02-26T17:01:24.092Z,100873.38
2023-02-26T17:04:01.117Z,100883.78
2023-02-26T17:06:31.341Z,100877.72
2023-02-26T17:09:01.119Z,100885.50
2023-02-26T17:11:30.554Z,100894.97
2023-02-26T17:14:15.541Z,100893.22
2023-02-26T17:16:43.347Z,100906.91
2023-02-26T17:19:11.415Z,100903.53
2023-02-26T17:21:43.839Z,100916.34
2023-02-26T17:24:18.392Z,100912.94
2023-02-26T17:26:47.793Z,100919.78
2023-02-26T17:29:20.727Z,100933.50
2023-02-26T17:31:48.668Z,100922.34
2023-02-26T17:34:19.144Z,100932.63
2023-02-26T17:36:47.208Z,100940.34
2023-02-26T17:39:16.532Z,100945.47
2023-02-26T17:41:45.580Z,100944.59
2023-02-26T17:44:14.081Z,100952.34
2023-02-26T17:46:43.597Z,100956.59
2023-02-26T17:49:12.479Z,100957.47
2023-02-26T17:51:40.755Z,100958.31
2023-02-26T17:54:08.485Z,100967.75
2023-02-26T17:56:38.029Z,100983.16
2023-02-26T17:59:07.313Z,100976.31
2023-02-26T18:01:35.065Z,100979.72
2023-02-26T18:04:04.347Z,100977.16
2023-02-26T18:06:35.646Z,100994.25
2023-02-26T18:09:05.674Z,100985.72
2023-02-26T18:11:35.112Z,100994.28
2023-02-26T18:14:03.232Z,100983.16
2023-02-26T18:16:35.952Z,100988.28
2023-02-26T18:19:06.463Z,100997.69
2023-02-26T18:21:35.006Z,101004.53
2023-02-26T18:24:02.740Z,101001.13
2023-02-26T18:26:33.693Z,101002.84
2023-02-26T18:29:01.797Z,100996.84
2023-02-26T18:31:34.668Z,101005.41
2023-02-26T18:34:05.913Z,101006.28
2023-02-26T18:36:37.661Z,101004.56
2023-02-26T18:39:07.885Z,101013.97
2023-02-26T18:41:35.665Z,101003.72
2023-02-26T18:44:03.518Z,101006.28
2023-02-26T18:46:34.631Z,101012.25
2023-02-26T18:49:02.318Z,101017.41
2023-02-26T18:51:31.522Z,101019.94
2023-02-26T18:53:59.849Z,101014.84
2023-02-26T18:56:27.620Z,101030.22
2023-02-26T18:58:55.445Z,101019.97
2023-02-26T19:01:24.488Z,101027.69
2023-02-26T19:03:52.203Z,101034.50
2023-02-26T19:06:20.255Z,101041.31
2023-02-26T19:08:49.380Z,101043.88
2023-02-26T19:11:18.386Z,101046.47
2023-02-26T19:13:47.168Z,101042.19
2023-02-26T19:16:16.827Z,101046.44
2023-02-26T19:18:44.784Z,101054.09
2023-02-26T19:21:12.733Z,101061.75
2023-02-26T19:23:40.921Z,101060.88
2023-02-26T19:26:10.060Z,101065.09
2023-02-26T19:28:38.264Z,101069.38
2023-02-26T19:31:06.867Z,101066.06
2023-02-26T19:33:34.675Z,101076.31
2023-02-26T19:36:04.037Z,101072.88
2023-02-26T19:38:31.752Z,101071.13
2023-02-26T19:40:59.970Z,101073.72
2023-02-26T19:43:29.214Z,101074.56
2023-02-26T19:45:56.984Z,101074.47
2023-02-26T19:48:24.813Z,101078.75
2023-02-26T19:50:52.560Z,101077.88
2023-02-26T19:53:20.697Z,101087.31
2023-02-26T19:55:50.040Z,101096.56
2023-02-26T19:58:19.759Z,101102.44
2023-02-26T20:00:49.189Z,101102.50
2023-02-26T20:03:17.501Z,101102.41
2023-02-26T20:05:45.616Z,101110.91
2023-02-26T20:08:13.854Z,101118.56
2023-02-26T20:10:44.366Z,101120.19
2023-02-26T20:13:13.505Z,101121.88
2023-02-26T20:15:41.523Z,101121.25
2023-02-26T20:18:11.503Z,101120.25
2023-02-26T20:20:39.551Z,101123.53
2023-02-26T20:23:08.321Z,101121.88
2023-02-26T20:25:36.172Z,101126.13
2023-02-26T20:28:03.933Z,101126.91
2023-02-26T20:30:32.836Z,101126.19
2023-02-26T20:33:00.704Z,101132.94
2023-02-26T20:35:29.883Z,101131.97
2023-02-26T20:37:57.596Z,101134.59
2023-02-26T20:40:25.308Z,101136.34
2023-02-26T20:42:53.155Z,101137.13
2023-02-26T20:45:21.275Z,101139.59
2023-02-26T20:47:49.136Z,101145.56
2023-02-26T20:50:17.506Z,101147.16
2023-02-26T20:52:46.649Z,101146.31
2023-02-26T20:55:15.037Z,101148.94
2023-02-26T20:57:42.760Z,101142.13
2023-02-26T21:00:15.557Z,101146.31
2023-02-26T21:02:44.225Z,101142.97
2023-02-26T21:05:14.089Z,101153.84
2023-02-26T21:07:42.531Z,101151.16
2023-02-26T21:10:15.589Z,101156.31
2023-02-26T21:12:43.688Z,101154.69
2023-02-26T21:15:14.916Z,101155.50
2023-02-26T21:17:43.941Z,101153.81
2023-02-26T21:20:17.824Z,101157.88
2023-02-26T21:22:46.604Z,101149.38
2023-02-26T21:25:16.444Z,101158.72
2023-02-26T21:27:44.385Z,101152.13
2023-02-26T21:30:14.840Z,101158.00
2023-02-26T21:32:43.660Z,101163.91
2023-02-26T21:35:15.592Z,101158.91
2023-02-26T21:37:43.991Z,101167.25
2023-02-26T21:40:15.124Z,101174.22
2023-02-26T21:42:45.228Z,101175.88
2023-02-26T21:45:14.733Z,101171.75
2023-02-26T21:47:43.289Z,101174.16
2023-02-26T21:50:12.275Z,101176.53
2023-02-26T21:52:40.313Z,101176.53
2023-02-26T21:55:09.658Z,101172.31
2023-02-26T21:57:38.608Z,101180.63
2023-02-26T22:00:11.049Z,101179.00
2023-02-26T22:02:43.780Z,101174.88
2023-02-26T22:05:12.375Z,101183.25
2023-02-26T22:07:41.022Z,101182.50
2023-02-26T22:10:10.924Z,101181.69
2023-02-26T22:12:38.772Z,101177.50
2023-02-26T22:15:09.430Z,101180.84
2023-02-26T22:17:37.277Z,101179.09
2023-02-26T22:20:09.792Z,101181.38
2023-02-26T22:22:37.853Z,101176.69
2023-02-26T22:25:06.999Z,101178.28
2023-02-26T22:27:34.913Z,101186.09
2023-02-26T22:30:02.687Z,101181.75
2023-02-26T22:32:31.859Z,101182.53
2023-02-26T22:34:59.584Z,101185.75
2023-02-26T22:37:27.289Z,101183.31
2023-02-26T22:39:55.163Z,101178.13
2023-02-26T22:42:22.966Z,101185.84
2023-02-26T22:44:50.874Z,101183.97
2023-02-26T22:47:19.421Z,101184.97
2023-02-26T22:49:48.980Z,101185.69
2023-02-26T22:52:17.285Z,101189.97
2023-02-26T22:54:46.371Z,101187.28
2023-02-26T22:57:14.955Z,101188.25
2023-02-26T22:59:42.863Z,101180.97
2023-02-26T23:02:10.522Z,101190.84
2023-02-26T23:04:38.330Z,101192.47
2023-02-26T23:07:07.582Z,101192.53
2023-02-26T23:09:35.548Z,101194.06
2023-02-26T23:12:03.371Z,101191.50
2023-02-26T23:14:31.331Z,101200.00
2023-02-26T23:16:59.220Z,101192.34
2023-02-26T23:19:27.406Z,101189.78
2023-02-26T23:21:56.314Z,101195.75
2023-02-26T23:24:25.711Z,101203.16
2023-02-26T23:26:53.410Z,101207.47
2023-02-26T23:29:22.183Z,101196.66
2023-02-26T23:31:50.751Z,101205.06
2023-02-26T23:34:19.419Z,101205.84
2023-02-26T23:36:47.197Z,101207.50
2023-02-26T23:39:16.134Z,101205.84
2023-02-26T23:41:45.211Z,101205.66
2023-02-26T23:44:13.470Z,101213.31
2023-02-26T23:46:41.440Z,101203.13
2023-02-26T23:49:09.571Z,101205.59
2023-02-26T23:51:38.368Z,101207.28
2023-02-26T23:54:06.195Z,101213.13
2023-02-26T23:56:34.163Z,101210.13
2023-02-26T23:59:04.137Z,101218.19
